METAR Data
IDs: Format: Raw Decoded Include TAF

Data at: 0852 UTC 18 Oct 2018

KHWD 180816Z AUTO 07003KT 10SM BKN012 12/08 A3010 RMK AO2 T01220083
No TAF found for KHWD

KRDD 180753Z AUTO 33005KT 10SM CLR 13/02 A3008 RMK AO2 SLP182 T01280017 402940067

KRDD 180520Z 1806/1906 VRB04KT P6SM SKC

KRTS 180835Z AUTO 00000KT 10SM CLR 02/M09 A3024 RMK AO2
No TAF found for KRTS